Gainesville Regional Airport
KGNV : now visible

Airfield :











YOU CAN JOIN US ON...

 
LOGIN :

Register | Disclaimer

   EN    FR    IT 

 









Legend :    VFR   Marginal VFR   IFR   Intensive IFR   Very Intensive IFR
Visi :
Ceiling :
>= 8 km
>= 3000ft
5 to 8 km
1000 to 3000 ft
1500m to 5 km
500 to 1000 ft
800 to 1500m
200 to 500 ft
< 800m
< 200 ft
Symbols :   Thunderstorms  Fog  Heavy snow  Heavy precipitations  Wind > 20 kt






- Airport Elevation : 152 ft
- IATA code : GNV


KGNV - Gainesville Regional

CURRENT METAR :
  • 041353Z 00000KT 10SM CLR 18/16 A3025 RMK AO2 SLP242 T01780161

EXPIRED METARs :
  • 041253Z 00000KT 10SM CLR 14/13 A3024 RMK AO2 SLP237 T01390128

TAF KGNV
Valid from the 04 at 12:00 until the 05 at 12:00 UTC


041120Z 0412/0512 30003KT 6SM BR SCT025 BKN040
FM041600 32006KT P6SM SCT025 BKN040
FM050000 VRB02KT P6SM BKN025 BKN040
FM050500 00000KT 3SM BR SCT005 BKN015
FM050900 00000KT 1/2SM FG BKN003
KZJX FIR / North America



MET'MAP, your aeronautical weather chart ! - Copyright ORBIFLY December 2007 - Disclaimer

ORBIFLY MET'MAP TEAM :

Programming & Development : Alexandra Zaïnal
Original concept : Baudouin d'Aumeries
Technical & hardware support : Manuel Goepfert
Assistance : Marc-Olivier Méhu




SOURCES & CREDITS :

   NOAA       Earth
Advisory